Latest Weather Observations for Georgetown Airport

IDQ60801

Issued at 1:32 pm EST Friday 6 March 2015 (issued every 30 minutes, with the page automatically refreshed every 10 minutes)

About weather observations | Map of weather stations | Latest weather observations for QLD | Other Formats
Station Details ID: 030124 Name: GEORGETOWN AIRPORT Lat: -18.30 Lon: 143.53 Height: 301.77 m
Data from the previous 72 hours. | See also: Recent months at Georgetown Airport
Date/Time
EST
Temp
°C
App
Temp
°C
Dew
Point
Rel
Hum
%
Delta-T
°C
Wind Press
QNH
hPa
Press
MSL
hPa
Rain
since 9 am
mm
Dir
 
Spd
km/h
Gust
km/h
Spd
kts
Gust
kts
06/01:30pm 32.5 35.8 22.6 56 6.9 WSW 9 15 5 8 1006.4 - 0.0
06/01:00pm 32.0 34.9 21.8 54 7.0 WSW 9 11 5 6 1006.9 - 0.0
06/12:30pm 32.1 34.5 21.6 53 7.2 SW 11 17 6 9 1007.6 - 0.0
06/12:00pm 31.8 33.4 22.8 59 6.2 W 19 28 10 15 1008.0 1005.9 0.0
06/11:30am 31.1 34.5 22.7 61 5.8 WSW 9 15 5 8 1008.7 - 0.0
06/11:00am 31.0 33.2 22.6 61 5.8 W 15 19 8 10 1009.3 - 0.0
06/10:30am 30.1 32.4 22.0 62 5.5 W 13 19 7 10 1009.5 - 0.0
06/10:00am 29.6 32.8 20.5 58 6.1 NW 4 7 2 4 1009.8 - 0.0
06/09:30am 28.7 30.5 19.6 58 6.0 WNW 9 13 5 7 1009.9 - 0.0
06/09:00am 27.6 29.2 19.1 59 5.6 NNW 9 13 5 7 1010.2 1008.2 0.0
06/08:30am 27.1 28.4 19.4 62 5.0 WNW 11 17 6 9 1010.1 - 0.0
06/08:00am 26.5 28.1 19.1 64 4.8 WNW 9 13 5 7 1010.1 - 0.0
06/07:30am 25.7 28.0 19.8 70 3.9 NW 7 9 4 5 1009.7 - 0.0
06/07:00am 25.0 27.6 20.0 74 3.3 WNW 6 7 3 4 1009.3 - 0.0
06/06:30am 25.3 27.0 19.4 70 3.8 NNW 9 13 5 7 1009.0 - 0.0
06/06:00am 25.6 27.4 19.5 69 4.0 NNW 9 13 5 7 1008.6 1006.6 0.0
06/05:30am 25.8 27.1 19.4 67 4.2 N 11 17 6 9 1008.1 - 0.0
06/05:00am 25.9 28.0 20.2 71 3.8 N 9 13 5 7 1007.8 - 0.0
06/04:30am 25.5 28.9 21.6 79 2.6 N 6 9 3 5 1007.9 - 0.0
06/04:00am 24.7 29.4 22.0 85 1.8 CALM 0 0 0 0 1007.9 - 0.0
06/03:30am 24.9 28.8 21.8 83 2.1 W 4 7 2 4 1007.9 - 0.0
06/03:00am 24.9 28.7 21.0 79 2.6 WNW 2 7 1 4 1008.0 1005.9 0.0
06/02:30am 26.0 29.3 20.8 73 3.5 NW 4 6 2 3 1008.1 - 0.0
06/02:00am 26.8 30.0 20.6 69 4.1 NNE 4 7 2 4 1008.2 - 0.0
06/01:30am 27.7 30.4 20.3 64 4.9 N 6 9 3 5 1008.3 - 0.0
06/01:00am 28.1 30.3 20.4 63 5.1 N 9 13 5 7 1008.7 - 0.0
06/12:30am 28.5 30.5 20.8 63 5.2 N 11 15 6 8 1008.8 - 0.0
06/12:00am 27.2 32.4 22.8 77 3.0 CALM 0 0 0 0 1008.8 1006.8 0.0
 
Date/Time
EST
Temp
°C
App
Temp
°C
Dew
Point
Rel
Hum
%
Delta-T
°C
Wind Press
QNH
hPa
Press
MSL
hPa
Rain
since 9 am
mm
Dir
 
Spd
km/h
Gust
km/h
Spd
kts
Gust
kts
05/11:30pm 27.3 32.3 22.5 75 3.3 CALM 0 0 0 0 1009.0 - 0.0
05/11:00pm 27.3 31.4 22.9 77 3.0 S 6 7 3 4 1009.0 - 0.0
05/10:30pm 27.6 31.5 21.9 71 3.9 SSW 4 6 2 3 1008.9 - 0.0
05/10:00pm 27.3 30.9 21.3 69 4.0 SW 4 6 2 3 1008.7 - 0.0
05/09:30pm 27.6 30.2 21.2 68 4.3 SW 9 11 5 6 1008.2 - 0.0
05/09:00pm 27.3 31.3 20.6 67 4.5 CALM 0 0 0 0 1008.0 1005.9 0.0
05/08:30pm 27.6 31.9 21.2 68 4.3 CALM 0 0 0 0 1007.9 - 0.0
05/08:00pm 28.2 32.5 21.2 65 4.7 CALM 0 0 0 0 1007.6 - 0.0
05/07:30pm 29.8 32.4 19.2 53 7.0 E 4 7 2 4 1007.2 - 0.0
05/07:00pm 31.5 32.9 19.5 49 8.0 ENE 11 11 6 6 1007.0 - 0.0
05/06:30pm 33.1 34.9 18.8 42 9.5 E 7 11 4 6 1006.7 - 0.0
05/06:00pm 33.9 34.6 18.0 39 10.4 E 11 17 6 9 1006.5 1004.5 0.0
05/05:30pm 34.5 35.4 18.5 38 10.6 E 11 19 6 10 1006.6 - 0.0
05/05:00pm 34.5 35.4 18.5 38 10.6 SE 11 20 6 11 1006.4 - 0.0
05/04:30pm 34.3 34.6 17.1 36 11.1 S 11 20 6 11 1006.3 - 0.0
05/04:00pm 34.3 34.6 17.1 36 11.1 ESE 11 15 6 8 1006.5 - 0.0
05/03:30pm 34.4 35.7 17.6 37 10.9 SE 7 15 4 8 1006.8 - 0.0
05/03:00pm 34.7 35.9 19.1 39 10.4 E 11 19 6 10 1007.0 1005.0 0.0
05/02:30pm 34.8 34.9 18.4 38 10.8 ENE 15 24 8 13 1007.7 - 0.0
05/02:00pm 34.5 35.1 18.5 38 10.6 ENE 13 20 7 11 1008.3 - 0.0
05/01:30pm 33.9 35.0 18.8 41 10.0 E 11 22 6 12 1008.8 - 0.0
05/01:00pm 33.1 34.9 19.6 45 9.0 SE 9 19 5 10 1009.6 - 0.0
05/12:30pm 32.1 33.1 19.4 47 8.4 ESE 13 20 7 11 1010.2 - 0.0
05/12:00pm 32.1 33.2 19.7 48 8.3 ENE 13 22 7 12 1010.6 1008.6 0.0
05/11:30am 31.6 33.8 20.5 51 7.5 E 9 20 5 11 1011.1 - 0.0
05/11:00am 30.7 32.1 20.3 53 7.0 E 13 20 7 11 1011.7 - 0.0
05/10:30am 30.0 32.2 20.5 56 6.4 ESE 9 17 5 9 1012.1 - 0.0
05/10:00am 28.8 30.6 20.3 60 5.7 E 11 19 6 10 1012.3 - 0.0
05/09:30am 28.2 29.8 20.7 63 5.0 ENE 13 20 7 11 1012.6 - 0.0
05/09:00am 27.4 30.3 20.7 67 4.5 E 6 11 3 6 1012.6 1010.6 0.0
05/08:30am 27.2 30.2 21.2 69 4.0 NE 7 11 4 6 1012.4 - 0.0
05/08:00am 25.0 28.2 21.7 82 2.2 N 7 9 4 5 1012.1 - 0.0
05/07:30am 23.2 27.7 21.6 91 1.1 CALM 0 0 0 0 1012.0 - 0.0
05/07:00am 22.1 26.5 21.3 95 0.5 CALM 0 0 0 0 1011.6 - 0.0
05/06:30am 21.3 25.3 20.5 95 0.5 CALM 0 0 0 0 1011.2 - 0.0
05/06:00am 21.6 25.7 20.8 95 0.5 CALM 0 0 0 0 1010.7 1008.7 0.0
05/05:30am 21.8 25.8 20.6 93 0.8 CALM 0 0 0 0 1010.2 - 0.0
05/05:00am 22.2 26.3 20.7 91 1.0 CALM 0 0 0 0 1010.0 - 0.0
05/04:30am 22.4 26.5 20.7 90 1.1 CALM 0 0 0 0 1009.8 - 0.0
05/04:00am 22.7 25.5 20.4 87 1.5 E 6 7 3 4 1009.8 - 0.0
05/03:30am 22.9 26.8 20.4 86 1.6 CALM 0 0 0 0 1009.9 - 0.0
05/03:00am 23.6 27.5 20.3 82 2.2 CALM 0 0 0 0 1010.1 1008.1 0.0
05/02:30am 24.4 27.0 20.5 79 2.6 NE 7 7 4 4 1010.5 - 0.0
05/02:00am 24.4 26.3 20.5 79 2.6 NE 11 13 6 7 1010.6 - 0.0
05/01:30am 24.6 27.2 20.5 78 2.7 NE 7 9 4 5 1010.8 - 0.0
05/01:00am 25.2 27.8 20.5 75 3.1 NNE 7 11 4 6 1011.2 - 0.0
05/12:30am 25.9 28.3 20.0 70 3.9 ENE 7 11 4 6 1011.2 - 0.0
05/12:00am 26.3 27.6 20.2 69 4.0 ENE 13 20 7 11 1011.5 1009.5 0.0
 
Date/Time
EST
Temp
°C
App
Temp
°C
Dew
Point
Rel
Hum
%
Delta-T
°C
Wind Press
QNH
hPa
Press
MSL
hPa
Rain
since 9 am
mm
Dir
 
Spd
km/h
Gust
km/h
Spd
kts
Gust
kts
04/11:30pm 26.7 26.9 20.1 67 4.4 ENE 19 26 10 14 1011.5 - 0.0
04/11:00pm 26.7 28.6 20.5 69 4.1 NE 11 15 6 8 1011.6 - 0.0
04/10:30pm 26.9 28.8 20.5 68 4.2 NE 11 13 6 7 1011.3 - 0.0
04/10:00pm 27.4 29.1 20.2 65 4.8 ENE 11 17 6 9 1011.1 - 0.0
04/09:30pm 27.8 29.6 20.4 64 4.9 ENE 11 15 6 8 1010.8 - 0.0
04/09:00pm 28.1 29.0 20.1 62 5.3 ENE 15 20 8 11 1010.5 1008.5 0.0
04/08:30pm 28.7 28.0 20.2 60 5.6 ENE 24 35 13 19 1010.2 - 0.0
04/08:00pm 28.4 31.3 20.7 63 5.1 SE 6 9 3 5 1009.4 - 0.0
04/07:30pm 28.9 30.9 18.7 54 6.6 SSE 6 7 3 4 1009.0 - 0.0
04/07:00pm 30.6 32.1 18.0 47 8.2 SE 7 11 4 6 1008.8 - 0.0
04/06:30pm 32.0 32.9 17.5 42 9.4 SSE 9 13 5 7 1008.5 - 0.0
04/06:00pm 32.9 34.3 17.9 41 9.8 SSE 7 15 4 8 1008.2 1006.1 0.0
04/05:30pm 32.5 34.9 17.9 41 9.5 ESE 2 9 1 5 1008.2 - 0.0
04/05:00pm 33.4 34.0 16.7 36 10.7 ESE 9 13 5 7 1008.2 - 0.0
04/04:30pm 34.4 34.8 17.2 36 11.1 ENE 11 20 6 11 1008.1 - 0.0
04/04:00pm 34.4 35.5 17.2 36 11.1 N 7 11 4 6 1008.1 - 0.0
04/03:30pm 34.0 34.6 16.8 35 11.1 S 9 17 5 9 1008.3 - 0.0
04/03:00pm 33.1 33.8 16.0 35 10.9 ESE 7 13 4 7 1008.6 1006.6 0.0
04/02:30pm 33.2 34.0 17.4 39 10.2 E 9 15 5 8 1008.9 - 0.0
04/02:00pm 33.2 33.5 16.1 35 10.9 ENE 9 20 5 11 1009.6 - 0.0
04/01:30pm 32.8 33.1 17.8 40 9.8 E 13 24 7 13 1009.9 - 0.0
04/01:00pm 32.2 32.5 18.0 42 9.2 E 13 24 7 13 1010.6 - 0.0
04/12:30pm 32.1 32.3 17.6 42 9.4 ENE 13 22 7 12 1011.1 - 0.0
04/12:00pm 32.0 33.1 18.9 45 8.6 E 11 30 6 16 1011.4 1009.4 0.0
04/11:30am 32.0 31.4 18.9 45 8.6 E 20 32 11 17 1011.5 - 0.0
04/11:00am 31.3 31.6 17.9 44 8.7 E 13 19 7 10 1011.7 - 0.0
04/10:30am 31.0 31.1 18.4 47 8.2 E 15 22 8 12 1011.9 - 0.0
04/10:00am 30.1 30.6 17.5 46 8.1 ESE 11 19 6 10 1011.9 - 0.0
04/09:30am 29.4 30.2 18.2 51 7.3 ESE 11 19 6 10 1011.8 - 0.0
04/09:00am 28.4 28.7 17.9 53 6.8 ESE 13 24 7 13 1011.8 1009.8 0.0
04/08:30am 27.3 26.8 17.8 56 6.1 ESE 17 24 9 13 1011.7 - 0.0
04/08:00am 26.5 27.3 18.1 60 5.4 ESE 11 17 6 9 1011.4 - 0.0
04/07:30am 25.4 25.6 18.6 66 4.4 ESE 15 22 8 12 1011.0 - 0.0
04/07:00am 24.2 25.1 19.3 74 3.2 E 13 19 7 10 1010.7 - 0.0
04/06:30am 23.7 24.4 18.8 74 3.1 E 13 20 7 11 1010.7 - 0.0
04/06:00am 23.8 24.3 18.4 72 3.4 E 13 19 7 10 1010.7 1008.7 0.0
04/05:30am 23.6 24.5 18.3 72 3.4 ESE 11 17 6 9 1010.4 - 0.0
04/05:00am 23.5 24.9 17.9 71 3.5 ESE 7 11 4 6 1010.4 - 0.0
04/04:30am 23.7 25.1 18.6 73 3.3 ESE 9 13 5 7 1010.3 - 0.0
04/04:00am 23.5 25.3 18.8 75 3.0 ESE 7 11 4 6 1010.2 - 0.0
04/03:30am 24.3 26.0 18.5 70 3.7 ESE 7 11 4 6 1010.1 - 0.0
04/03:00am 25.1 25.5 18.1 65 4.5 E 13 20 7 11 1010.0 1008.0 0.0
04/02:30am 25.8 24.9 17.7 61 5.1 E 19 30 10 16 1010.1 - 0.0
04/02:00am 26.0 25.6 18.9 65 4.6 E 19 26 10 14 1010.5 - 0.0
04/01:30am 26.0 26.7 19.6 68 4.2 E 15 24 8 13 1010.8 - 0.0
04/01:00am 26.2 27.1 20.1 69 4.0 E 15 20 8 11 1011.2 - 0.0
04/12:30am 26.7 26.7 19.8 66 4.5 E 19 28 10 15 1011.4 - 0.0
04/12:00am 27.4 27.3 20.0 64 4.9 E 20 30 11 16 1011.4 1009.4 0.0
 
Date/Time
EST
Temp
°C
App
Temp
°C
Dew
Point
Rel
Hum
%
Delta-T
°C
Wind Press
QNH
hPa
Press
MSL
hPa
Rain
since 9 am
mm
Dir
 
Spd
km/h
Gust
km/h
Spd
kts
Gust
kts
03/11:30pm 28.1 28.9 19.9 61 5.4 E 15 22 8 12 1011.4 - 0.0
03/11:00pm 28.8 28.8 19.7 58 6.0 E 19 28 10 15 1011.1 - 0.0
03/10:30pm 29.1 29.1 19.7 57 6.2 ENE 19 26 10 14 1011.0 - 0.0
03/10:00pm 29.7 29.5 19.7 55 6.6 ENE 20 26 11 14 1010.8 - 0.0
03/09:30pm 29.4 30.8 20.3 58 6.1 E 13 20 7 11 1010.6 - 0.0
03/09:00pm 28.8 31.3 21.0 62 5.2 E 9 9 5 5 1010.1 1008.1 0.0
03/08:30pm 28.2 33.0 22.2 70 4.1 CALM 0 9 0 5 1009.8 - 0.0
03/08:00pm 28.9 32.1 20.4 60 5.7 ENE 4 7 2 4 1009.2 - 0.0
03/07:30pm 30.2 32.4 19.6 53 7.0 SE 7 11 4 6 1008.7 - 0.0
03/07:00pm 31.0 33.1 19.4 50 7.7 SE 7 11 4 6 1008.3 - 0.0
03/06:30pm 32.3 34.1 18.8 44 8.9 SE 7 11 4 6 1008.4 - 0.0
03/06:00pm 33.2 34.1 18.5 41 9.7 SE 11 20 6 11 1008.0 1005.9 0.0
03/05:30pm 33.7 35.6 19.7 43 9.4 ESE 9 13 5 7 1007.9 - 0.0
03/05:00pm 33.6 34.7 18.9 41 9.7 ESE 11 19 6 10 1008.0 - 0.0
03/04:30pm 33.7 35.9 19.7 43 9.4 E 7 13 4 7 1007.9 - 0.0
03/04:00pm 33.8 36.0 19.5 43 9.5 E 7 15 4 8 1008.2 - 0.0
03/03:30pm 33.8 35.0 19.8 43 9.4 E 13 28 7 15 1008.2 - 0.0
03/03:00pm 33.2 35.2 20.0 45 8.9 ESE 9 17 5 9 1008.5 1006.5 0.0
03/02:30pm 33.1 34.4 19.2 43 9.2 SE 11 19 6 10 1008.9 - 0.0
03/02:00pm 33.6 35.5 19.7 44 9.3 ENE 9 20 5 11 1009.5 - 0.0

Other Formats:

Comma delimited format used in spreadsheet applications
http://www.bom.gov.au/fwo/IDQ60801/IDQ60801.94274.axf

JavaScript Object Notation format (JSON) in row-major order
http://www.bom.gov.au/fwo/IDQ60801/IDQ60801.94274.json